Time;durP1;ratioP1;P1;durP2;ratioP2;P2;SDS_P1;SDS_P2;PMS_P1;PMS_P2;Temp;Humidity;BMP_temperature;BMP_pressure;BME280_temperature;BME280_humidity;BME280_pressure;Samples;Min_cycle;Max_cycle;Signal;HPM_P1;HPM_P2
2023/03/07 00:00:07;;;;;;;18.67;8.13;;;3.10;99.90;;;;;;4247353;28;20503;-82
2023/03/07 00:02:08;;;;;;;18.67;8.30;;;3.10;99.90;;;;;;4258939;27;20035;-82
2023/03/07 00:04:09;;;;;;;18.38;7.75;;;3.10;99.90;;;;;;4260067;27;20035;-82
2023/03/07 00:06:11;;;;;;;27.55;9.05;;;3.90;99.90;;;;;;4262304;27;20027;-82
2023/03/07 00:08:12;;;;;;;17.05;7.63;;;3.10;99.90;;;;;;4269829;27;20043;-82
2023/03/07 00:10:13;;;;;;;18.40;7.03;;;3.40;99.90;;;;;;4271278;27;20027;-81
2023/03/07 00:12:15;;;;;;;17.40;7.10;;;3.10;99.90;;;;;;4249961;28;20068;-82
2023/03/07 00:14:17;;;;;;;15.82;7.00;;;3.20;99.90;;;;;;4247566;28;20028;-81
2023/03/07 00:16:20;;;;;;;16.13;6.32;;;3.50;99.90;;;;;;4260107;27;20027;-82
2023/03/07 00:18:21;;;;;;;17.02;6.63;;;3.20;99.90;;;;;;4263171;27;20078;-82
2023/03/07 00:20:23;;;;;;;15.00;6.45;;;3.60;99.90;;;;;;4252445;28;20038;-82
2023/03/07 00:22:25;;;;;;;17.20;5.70;;;3.90;99.90;;;;;;4228033;28;20054;-82
2023/03/07 00:24:27;;;;;;;15.70;5.75;;;3.20;99.90;;;;;;4254520;27;20035;-82
2023/03/07 00:26:27;;;;;;;16.73;5.97;;;3.40;99.90;;;;;;4252127;27;20348;-82
2023/03/07 00:28:28;;;;;;;12.27;4.75;;;3.20;99.90;;;;;;4252514;27;20394;-82
2023/03/07 00:30:29;;;;;;;10.02;4.10;;;3.20;99.90;;;;;;4217314;28;20051;-82
2023/03/07 00:32:31;;;;;;;11.05;4.68;;;3.20;99.90;;;;;;4234104;28;20461;-82
2023/03/07 00:34:31;;;;;;;11.43;4.65;;;3.20;99.90;;;;;;4234552;28;20040;-82
2023/03/07 00:36:34;;;;;;;12.93;3.90;;;3.10;99.90;;;;;;4252203;27;20049;-82
2023/03/07 00:38:36;;;;;;;15.75;3.72;;;3.20;99.90;;;;;;4216984;28;20086;-82
2023/03/07 00:40:36;;;;;;;9.88;3.63;;;3.10;99.90;;;;;;4252054;27;20043;-83
2023/03/07 00:42:37;;;;;;;11.93;2.90;;;3.30;99.90;;;;;;4252482;27;20111;-83
2023/03/07 00:44:39;;;;;;;8.98;3.15;;;3.10;99.90;;;;;;4234653;28;20066;-85
2023/03/07 00:46:40;;;;;;;7.05;2.25;;;3.10;99.90;;;;;;4217989;28;20539;-84
2023/03/07 00:48:42;;;;;;;7.15;1.70;;;3.60;99.90;;;;;;4218970;28;20439;-83
2023/03/07 00:50:44;;;;;;;12.52;3.20;;;3.60;99.90;;;;;;4217195;28;20090;-83
2023/03/07 00:52:45;;;;;;;12.00;1.90;;;3.20;99.90;;;;;;4218292;28;20048;-83
2023/03/07 00:54:45;;;;;;;10.35;1.77;;;3.70;99.90;;;;;;4234105;28;20047;-83
2023/03/07 00:56:46;;;;;;;10.18;1.80;;;3.40;99.90;;;;;;4233352;28;20043;-83
2023/03/07 00:58:48;;;;;;;8.00;1.70;;;3.60;99.90;;;;;;4251255;27;20497;-83
2023/03/07 01:00:51;;;;;;;11.65;1.80;;;3.80;99.90;;;;;;4233851;28;20043;-83
2023/03/07 01:02:52;;;;;;;7.93;2.10;;;3.20;99.90;;;;;;4216831;28;20060;-83
2023/03/07 01:04:54;;;;;;;8.45;1.58;;;3.50;99.90;;;;;;4215978;28;20381;-83
2023/03/07 01:06:55;;;;;;;12.77;1.98;;;3.80;99.90;;;;;;4216582;28;20598;-83
2023/03/07 01:08:58;;;;;;;9.15;1.40;;;3.20;99.90;;;;;;4216849;28;20044;-84
2023/03/07 01:11:01;;;;;;;8.82;1.27;;;3.30;99.90;;;;;;4251123;27;20051;-84
2023/03/07 01:13:02;;;;;;;6.05;1.85;;;3.30;99.90;;;;;;4251189;27;20575;-83
2023/03/07 01:15:04;;;;;;;9.32;2.60;;;3.40;99.90;;;;;;4227474;28;20055;-83
2023/03/07 01:17:10;;;;;;;8.27;1.00;;;3.20;99.90;;;;;;4216022;28;20163;-83
2023/03/07 01:19:11;;;;;;;13.50;1.70;;;3.20;99.90;;;;;;4215916;28;20048;-84
2023/03/07 01:21:18;;;;;;;7.60;1.15;;;3.70;99.90;;;;;;4234342;28;20658;-83
2023/03/07 01:23:20;;;;;;;9.15;1.48;;;3.70;99.90;;;;;;4215600;28;20512;-84
2023/03/07 01:25:20;;;;;;;6.35;1.60;;;3.20;99.90;;;;;;4233866;28;20448;-84
2023/03/07 01:27:22;;;;;;;9.82;2.28;;;3.40;99.90;;;;;;4215763;28;20060;-84
2023/03/07 01:29:23;;;;;;;14.25;1.17;;;3.60;99.90;;;;;;4234032;27;20168;-84
2023/03/07 01:31:25;;;;;;;5.60;1.30;;;3.50;99.90;;;;;;4246246;27;20043;-84
2023/03/07 01:33:27;;;;;;;11.35;1.15;;;3.30;99.90;;;;;;4216675;28;20090;-84
2023/03/07 01:35:29;;;;;;;4.85;1.05;;;3.30;99.90;;;;;;4250830;27;20047;-84
2023/03/07 01:37:29;;;;;;;10.48;1.40;;;3.60;99.90;;;;;;4250918;27;20055;-84
2023/03/07 01:39:30;;;;;;;11.73;2.33;;;3.80;99.90;;;;;;4250745;27;20114;-84
2023/03/07 01:41:36;;;;;;;8.52;1.65;;;3.30;99.90;;;;;;4232769;28;20051;-84
2023/03/07 01:43:38;;;;;;;14.52;1.95;;;3.30;99.90;;;;;;4232545;28;20050;-84
2023/03/07 01:46:20;;;;;;;8.63;1.00;;;3.30;99.90;;;;;;4215226;28;20052;-84
2023/03/07 01:48:21;;;;;;;8.75;1.10;;;3.50;99.90;;;;;;4235909;27;20058;-84
2023/03/07 01:50:23;;;;;;;3.63;0.80;;;3.30;99.90;;;;;;4216182;28;20127;-84
2023/03/07 01:52:31;;;;;;;12.13;2.08;;;3.30;99.90;;;;;;4232667;28;20487;-83
2023/03/07 01:54:35;;;;;;;4.20;0.95;;;3.30;99.90;;;;;;4232427;28;20098;-84
2023/03/07 01:56:38;;;;;;;6.63;2.20;;;3.70;99.90;;;;;;4232487;28;20051;-82
2023/03/07 01:58:40;;;;;;;4.85;0.70;;;3.20;99.90;;;;;;4232913;28;20111;-82
2023/03/07 02:00:42;;;;;;;21.40;3.58;;;3.20;99.90;;;;;;4250397;27;20035;-82
2023/03/07 02:02:48;;;;;;;9.40;0.63;;;3.90;99.90;;;;;;4231657;28;20059;-82
2023/03/07 02:05:15;;;;;;;11.65;1.45;;;3.10;99.90;;;;;;4216368;28;20134;-82
2023/03/07 02:07:19;;;;;;;1.42;0.38;;;3.10;99.90;;;;;;4251045;27;20122;-82
2023/03/07 02:09:22;;;;;;;3.85;1.58;;;3.50;99.90;;;;;;4232598;28;20430;-82
2023/03/07 02:11:23;;;;;;;8.07;1.45;;;3.80;99.90;;;;;;4215175;28;20055;-82
2023/03/07 02:13:24;;;;;;;8.18;1.00;;;3.10;99.90;;;;;;4251288;27;20058;-82
2023/03/07 02:15:26;;;;;;;6.78;0.95;;;3.00;99.90;;;;;;4216234;28;20135;-82
2023/03/07 02:17:27;;;;;;;8.13;1.30;;;3.40;99.90;;;;;;4251299;27;20039;-82
2023/03/07 02:19:38;;;;;;;9.55;1.10;;;3.00;99.90;;;;;;4232496;28;20043;-82
2023/03/07 02:22:10;;;;;;;13.82;1.10;;;3.10;99.90;;;;;;4233312;28;20454;-81
2023/03/07 02:24:29;;;;;;;6.95;0.73;;;3.00;99.90;;;;;;4251926;27;20135;-82
2023/03/07 02:26:31;;;;;;;2.78;1.05;;;3.00;99.90;;;;;;4232365;28;20091;-82
2023/03/07 02:28:33;;;;;;;10.23;1.25;;;3.50;99.90;;;;;;4250333;27;20427;-82
2023/03/07 02:30:36;;;;;;;6.13;1.35;;;3.00;99.90;;;;;;4250510;27;20047;-82
2023/03/07 02:32:38;;;;;;;6.03;1.00;;;3.10;99.90;;;;;;4231955;28;20082;-83
2023/03/07 02:34:40;;;;;;;11.27;1.30;;;3.60;99.90;;;;;;4251359;28;20504;-82
2023/03/07 02:36:42;;;;;;;8.98;1.45;;;3.10;99.90;;;;;;4232164;28;20054;-83
2023/03/07 02:38:44;;;;;;;10.65;1.25;;;3.10;99.90;;;;;;4214413;28;20427;-83
2023/03/07 02:40:45;;;;;;;7.63;0.88;;;3.00;99.90;;;;;;4214893;28;20074;-82
2023/03/07 02:42:47;;;;;;;8.63;0.85;;;3.30;99.90;;;;;;4215392;28;20052;-83
2023/03/07 02:45:02;;;;;;;4.53;1.00;;;2.90;99.90;;;;;;4215193;28;20079;-83
2023/03/07 02:47:07;;;;;;;8.68;0.85;;;2.90;99.90;;;;;;4214815;28;20078;-82
2023/03/07 02:49:09;;;;;;;5.82;1.45;;;2.90;99.90;;;;;;4233297;28;20083;-82
2023/03/07 02:51:11;;;;;;;5.07;0.73;;;2.90;99.90;;;;;;4215091;28;20052;-82
2023/03/07 02:53:11;;;;;;;10.88;1.70;;;2.80;99.90;;;;;;4233519;28;20096;-82
2023/03/07 02:55:12;;;;;;;9.70;1.10;;;2.90;99.90;;;;;;4214552;28;20048;-83
2023/03/07 02:57:14;;;;;;;7.00;1.00;;;2.80;99.90;;;;;;4250198;28;20126;-83
2023/03/07 02:59:16;;;;;;;18.98;1.25;;;2.80;99.90;;;;;;4250000;28;20047;-83
2023/03/07 03:01:17;;;;;;;6.75;1.30;;;2.80;99.90;;;;;;4214774;28;20070;-82
2023/03/07 03:03:18;;;;;;;7.50;0.77;;;2.70;99.90;;;;;;4214784;28;20052;-83
2023/03/07 03:05:19;;;;;;;5.28;0.65;;;2.80;99.90;;;;;;4249577;28;20507;-83
2023/03/07 03:07:20;;;;;;;8.43;0.77;;;3.40;99.90;;;;;;4214732;28;20175;-83
2023/03/07 03:09:20;;;;;;;9.10;0.90;;;3.10;99.90;;;;;;4231903;28;20159;-82
2023/03/07 03:11:21;;;;;;;11.82;1.35;;;2.80;99.90;;;;;;4231201;28;20477;-82
2023/03/07 03:13:23;;;;;;;8.77;1.95;;;2.70;99.90;;;;;;4250032;28;20046;-83
2023/03/07 03:15:25;;;;;;;5.65;0.75;;;2.70;99.90;;;;;;4231759;28;20043;-83
2023/03/07 03:17:26;;;;;;;4.60;0.80;;;2.70;99.90;;;;;;4249541;28;20044;-83
2023/03/07 03:19:28;;;;;;;6.70;0.70;;;3.20;99.90;;;;;;4231910;28;20134;-83
2023/03/07 03:21:31;;;;;;;6.65;0.90;;;2.80;99.90;;;;;;4231316;28;20051;-83
2023/03/07 03:23:31;;;;;;;5.82;1.05;;;2.70;99.90;;;;;;4249496;28;20082;-83
2023/03/07 03:25:32;;;;;;;7.05;0.85;;;2.70;99.90;;;;;;4214139;28;20546;-83
2023/03/07 03:27:33;;;;;;;5.95;0.60;;;2.70;99.90;;;;;;4248268;27;20507;-83
2023/03/07 03:29:34;;;;;;;5.82;1.13;;;2.80;99.90;;;;;;4232335;28;20181;-83
2023/03/07 03:31:35;;;;;;;5.70;1.27;;;3.40;99.90;;;;;;4217078;28;20047;-83
2023/03/07 03:33:38;;;;;;;11.00;1.10;;;2.70;99.90;;;;;;4235683;28;20107;-83
2023/03/07 03:35:38;;;;;;;11.20;1.77;;;2.70;99.90;;;;;;4234969;28;20130;-83
2023/03/07 03:37:39;;;;;;;5.35;0.98;;;2.70;99.90;;;;;;4200033;28;20052;-83
2023/03/07 03:39:40;;;;;;;9.85;0.93;;;2.70;99.90;;;;;;4234844;28;20064;-83
2023/03/07 03:41:41;;;;;;;4.93;0.70;;;2.60;99.90;;;;;;4234853;28;20115;-83
2023/03/07 03:43:41;;;;;;;8.23;0.98;;;3.70;99.90;;;;;;4235066;27;20043;-83
2023/03/07 03:45:43;;;;;;;10.82;1.15;;;2.60;99.90;;;;;;4236358;28;20127;-83
2023/03/07 03:47:47;;;;;;;8.25;0.60;;;2.60;99.90;;;;;;4217774;28;20048;-83
2023/03/07 03:49:47;;;;;;;7.00;0.60;;;3.30;99.90;;;;;;4235329;28;20082;-83
2023/03/07 03:51:49;;;;;;;5.18;0.80;;;3.10;99.90;;;;;;4200459;28;20550;-83
2023/03/07 03:53:50;;;;;;;8.55;1.13;;;2.60;99.90;;;;;;4217707;28;20182;-83
2023/03/07 03:55:51;;;;;;;3.40;0.63;;;2.60;99.90;;;;;;4199876;28;20052;-83
2023/03/07 03:57:52;;;;;;;8.30;1.58;;;2.60;99.90;;;;;;4235229;28;20135;-82
2023/03/07 03:59:54;;;;;;;3.33;0.50;;;4.10;99.90;;;;;;4200216;28;20049;-83
2023/03/07 04:01:55;;;;;;;11.27;0.73;;;2.60;99.90;;;;;;4217405;28;20052;-83
2023/03/07 04:03:57;;;;;;;4.05;0.43;;;3.70;99.90;;;;;;4217575;28;20050;-83
2023/03/07 04:06:06;;;;;;;1.05;0.50;;;3.80;99.90;;;;;;4216564;28;20048;-83
2023/03/07 04:08:07;;;;;;;7.78;0.80;;;2.90;99.90;;;;;;4234864;28;20527;-82
2023/03/07 04:10:09;;;;;;;6.10;0.70;;;3.30;99.90;;;;;;4217003;28;20107;-83
2023/03/07 04:12:10;;;;;;;6.28;1.27;;;2.70;99.90;;;;;;4216733;28;20048;-83
2023/03/07 04:14:11;;;;;;;5.40;0.65;;;3.10;99.90;;;;;;4216551;28;20056;-83
2023/03/07 04:16:21;;;;;;;5.88;0.95;;;3.80;99.90;;;;;;4236381;28;20051;-83
2023/03/07 04:18:25;;;;;;;12.05;1.35;;;3.60;99.90;;;;;;4243401;27;20043;-83
2023/03/07 04:20:27;;;;;;;6.50;1.45;;;3.00;99.90;;;;;;4252001;27;20043;-83
2023/03/07 04:22:28;;;;;;;4.22;0.50;;;3.30;99.90;;;;;;4233530;28;20126;-83
2023/03/07 04:24:29;;;;;;;5.85;1.00;;;3.30;99.90;;;;;;4233557;28;20096;-83
2023/03/07 04:26:29;;;;;;;5.40;1.02;;;3.10;99.90;;;;;;4233057;28;20056;-83
2023/03/07 04:28:43;;;;;;;8.50;1.33;;;4.00;99.90;;;;;;4251416;27;20051;-83
2023/03/07 04:30:48;;;;;;;6.13;0.93;;;2.80;99.90;;;;;;4250896;27;20463;-83
2023/03/07 04:32:49;;;;;;;2.58;0.63;;;3.10;99.90;;;;;;4232815;28;20411;-83
2023/03/07 04:34:50;;;;;;;5.13;1.20;;;2.80;99.90;;;;;;4243670;27;20043;-83
2023/03/07 04:36:51;;;;;;;6.22;0.80;;;2.50;99.90;;;;;;4216306;28;20157;-83
2023/03/07 04:38:52;;;;;;;5.80;0.93;;;2.70;99.90;;;;;;4199523;28;20521;-83
2023/03/07 04:40:53;;;;;;;5.57;1.15;;;3.40;99.90;;;;;;4199205;28;20048;-83
2023/03/07 04:42:55;;;;;;;5.18;0.80;;;2.50;99.90;;;;;;4234392;28;20497;-83
2023/03/07 04:44:56;;;;;;;5.10;1.00;;;3.30;99.90;;;;;;4215129;28;20074;-83
2023/03/07 04:46:57;;;;;;;11.75;1.30;;;3.20;99.90;;;;;;4215554;28;20044;-82
2023/03/07 04:48:57;;;;;;;5.05;1.10;;;3.70;99.90;;;;;;4241511;28;20032;-83
2023/03/07 04:50:58;;;;;;;4.32;0.50;;;2.90;99.90;;;;;;4239519;28;20104;-83
2023/03/07 04:52:59;;;;;;;9.55;0.90;;;2.80;99.90;;;;;;4270605;27;20090;-83
2023/03/07 04:55:00;;;;;;;4.53;0.60;;;2.40;99.90;;;;;;4252694;28;20026;-83
2023/03/07 04:57:01;;;;;;;3.95;1.20;;;3.40;99.90;;;;;;4271003;27;20080;-83
2023/03/07 04:59:01;;;;;;;8.35;1.10;;;3.20;99.90;;;;;;4236244;28;20031;-83
2023/03/07 05:01:04;;;;;;;13.13;2.10;;;3.90;99.90;;;;;;4270863;27;20027;-83
2023/03/07 05:03:06;;;;;;;12.85;0.90;;;2.50;99.90;;;;;;4253291;28;20023;-83
2023/03/07 05:05:07;;;;;;;6.15;0.80;;;3.50;99.90;;;;;;4236120;28;20034;-82
2023/03/07 05:07:08;;;;;;;6.22;0.77;;;2.60;99.90;;;;;;4270379;27;20053;-82
2023/03/07 05:09:08;;;;;;;3.47;0.60;;;3.20;99.90;;;;;;4232051;28;20048;-82
2023/03/07 05:11:09;;;;;;;7.68;1.42;;;3.00;99.90;;;;;;4247181;28;20107;-83
2023/03/07 05:13:11;;;;;;;13.60;1.70;;;4.00;99.90;;;;;;4229320;28;20055;-83
2023/03/07 05:15:12;;;;;;;8.07;1.02;;;3.30;99.90;;;;;;4267683;27;20027;-81
2023/03/07 05:17:14;;;;;;;12.80;1.40;;;2.70;99.90;;;;;;4245661;28;20112;-82
2023/03/07 05:19:15;;;;;;;7.43;1.17;;;3.80;99.90;;;;;;4216160;28;20044;-82
2023/03/07 05:21:16;;;;;;;5.57;1.00;;;3.60;99.90;;;;;;4251394;27;20486;-82
2023/03/07 05:23:39;;;;;;;9.27;1.80;;;2.50;99.90;;;;;;4240386;27;20035;-82
2023/03/07 05:25:40;;;;;;;6.63;1.00;;;2.40;99.90;;;;;;4215605;28;20504;-82
2023/03/07 05:27:43;;;;;;;4.40;0.70;;;2.40;99.90;;;;;;4217894;28;20114;-83
2023/03/07 05:29:44;;;;;;;5.72;0.70;;;2.40;99.90;;;;;;4216369;28;20059;-82
2023/03/07 05:31:44;;;;;;;5.95;0.63;;;2.80;99.90;;;;;;4200859;28;20064;-82
2023/03/07 05:33:45;;;;;;;8.50;0.68;;;3.30;99.90;;;;;;4215975;28;20043;-82
2023/03/07 05:35:46;;;;;;;3.17;0.60;;;3.70;99.90;;;;;;4216843;28;20571;-82
2023/03/07 05:37:49;;;;;;;2.33;0.40;;;2.40;99.90;;;;;;4224866;28;20487;-82
2023/03/07 05:39:49;;;;;;;7.60;0.73;;;3.50;99.90;;;;;;4217433;28;20170;-82
2023/03/07 05:41:50;;;;;;;4.97;0.60;;;2.80;99.90;;;;;;4233777;28;20043;-82
2023/03/07 05:43:54;;;;;;;9.05;1.75;;;3.20;99.90;;;;;;4198090;28;20098;-82
2023/03/07 05:45:54;;;;;;;6.43;0.85;;;4.00;99.90;;;;;;4205026;28;20098;-82
2023/03/07 05:47:56;;;;;;;10.02;1.45;;;4.00;99.90;;;;;;4214976;28;20441;-82
2023/03/07 05:49:57;;;;;;;7.88;1.48;;;2.70;99.90;;;;;;4223715;28;20384;-82
2023/03/07 05:51:59;;;;;;;7.03;1.23;;;3.20;99.90;;;;;;4216249;28;20046;-83
2023/03/07 05:54:01;;;;;;;7.95;0.90;;;3.50;99.90;;;;;;4198770;28;20044;-83
2023/03/07 05:56:04;;;;;;;3.72;0.70;;;2.50;99.90;;;;;;4216158;28;20044;-83
2023/03/07 05:58:05;;;;;;;4.22;0.65;;;2.40;99.90;;;;;;4208370;28;20048;-83
2023/03/07 06:00:07;;;;;;;4.30;0.85;;;2.60;99.90;;;;;;4217365;28;20044;-82
2023/03/07 06:02:08;;;;;;;3.10;0.47;;;2.40;99.90;;;;;;4218923;28;20059;-83
2023/03/07 06:04:18;;;;;;;4.50;0.50;;;3.90;99.90;;;;;;4252800;28;20051;-83
2023/03/07 06:06:18;;;;;;;7.30;0.63;;;3.30;99.90;;;;;;4235420;28;20056;-83
2023/03/07 06:08:19;;;;;;;6.43;0.55;;;2.40;99.90;;;;;;4252261;28;20058;-84
2023/03/07 06:10:22;;;;;;;10.35;1.58;;;3.20;99.90;;;;;;4252347;28;20019;-83
2023/03/07 06:12:23;;;;;;;4.32;0.75;;;3.50;99.90;;;;;;4251912;28;20030;-81
2023/03/07 06:14:24;;;;;;;5.93;0.60;;;2.30;99.90;;;;;;4251777;28;20028;-81
2023/03/07 06:16:33;;;;;;;4.80;1.35;;;3.20;99.90;;;;;;4252519;28;20039;-83
2023/03/07 06:18:34;;;;;;;3.95;0.30;;;2.50;99.90;;;;;;4235442;28;20020;-85
2023/03/07 06:20:37;;;;;;;5.28;0.60;;;3.60;99.90;;;;;;4253029;28;20080;-85
2023/03/07 06:22:39;;;;;;;4.60;0.40;;;2.40;99.90;;;;;;4234971;28;20024;-83
2023/03/07 06:24:40;;;;;;;7.40;1.27;;;2.20;99.90;;;;;;4247727;28;20026;-82
2023/03/07 06:26:41;;;;;;;3.63;1.00;;;2.00;99.90;;;;;;4252111;28;20059;-82
2023/03/07 06:31:58;;;;;;;3.38;0.77;;;2.00;99.90;;;;;;4218211;28;20043;-82
2023/03/07 06:34:13;;;;;;;6.07;1.13;;;2.00;99.90;;;;;;4222269;28;20108;-82
2023/03/07 06:36:28;;;;;;;4.65;1.17;;;2.00;99.90;;;;;;4205322;28;20056;-83
2023/03/07 06:38:28;;;;;;;5.55;1.00;;;2.00;99.90;;;;;;4215521;28;20036;-83
2023/03/07 06:40:32;;;;;;;11.05;1.00;;;2.40;99.90;;;;;;4206222;28;20420;-83
2023/03/07 06:42:34;;;;;;;9.00;1.85;;;2.20;99.90;;;;;;4223398;28;20067;-82
2023/03/07 06:44:35;;;;;;;5.97;1.77;;;2.10;99.90;;;;;;4217716;28;20040;-82
2023/03/07 06:46:35;;;;;;;3.15;0.57;;;2.10;99.90;;;;;;4215530;28;20048;-82
2023/03/07 06:48:37;;;;;;;10.10;0.93;;;2.60;99.90;;;;;;4197457;28;20044;-82
2023/03/07 06:50:39;;;;;;;8.18;1.60;;;2.70;99.90;;;;;;4215531;28;20078;-82
2023/03/07 06:52:40;;;;;;;6.22;0.73;;;3.10;99.90;;;;;;4209061;28;20044;-82
2023/03/07 06:54:41;;;;;;;5.40;0.85;;;2.60;99.90;;;;;;4214502;28;20113;-82
2023/03/07 06:56:41;;;;;;;10.00;1.10;;;2.60;99.90;;;;;;4232471;28;20484;-82
2023/03/07 06:58:42;;;;;;;8.57;1.65;;;2.60;99.90;;;;;;4232317;28;20408;-82
2023/03/07 07:00:43;;;;;;;9.82;1.85;;;3.30;99.90;;;;;;4232336;28;20069;-82
2023/03/07 07:02:46;;;;;;;6.10;1.95;;;3.10;99.90;;;;;;4215047;28;20047;-82
2023/03/07 07:04:46;;;;;;;10.50;1.20;;;3.70;99.90;;;;;;4217039;28;20044;-82
2023/03/07 07:06:48;;;;;;;6.35;1.08;;;2.40;99.90;;;;;;4235358;28;20055;-82
2023/03/07 07:08:52;;;;;;;4.55;0.82;;;3.40;99.90;;;;;;4234187;28;20059;-82
2023/03/07 07:10:52;;;;;;;5.45;1.63;;;3.60;99.90;;;;;;4234553;28;20119;-82
2023/03/07 07:12:55;;;;;;;4.38;1.15;;;3.80;99.90;;;;;;4234923;28;20051;-82
2023/03/07 07:15:01;;;;;;;8.25;0.90;;;2.80;99.90;;;;;;4234278;28;20059;-82
2023/03/07 07:17:02;;;;;;;5.25;0.60;;;2.40;99.90;;;;;;4235493;28;20055;-82
2023/03/07 07:19:03;;;;;;;3.92;0.70;;;4.00;99.90;;;;;;4235212;28;20380;-82
2023/03/07 07:21:04;;;;;;;7.85;1.58;;;2.20;99.90;;;;;;4234330;28;20052;-82
2023/03/07 07:23:05;;;;;;;4.88;1.10;;;2.60;99.90;;;;;;4235989;28;20495;-82
2023/03/07 07:25:06;;;;;;;9.43;0.70;;;2.90;99.90;;;;;;4237102;27;20395;-82
2023/03/07 07:27:08;;;;;;;7.85;0.60;;;2.50;99.90;;;;;;4252205;27;20047;-82
2023/03/07 07:29:10;;;;;;;2.65;0.80;;;2.70;99.90;;;;;;4217556;28;20131;-82
2023/03/07 07:31:11;;;;;;;6.95;0.47;;;3.50;99.90;;;;;;4252781;27;20497;-83
2023/03/07 07:33:12;;;;;;;5.07;0.60;;;2.80;99.90;;;;;;4217870;28;20048;-83
2023/03/07 07:35:13;;;;;;;6.95;0.82;;;3.20;99.90;;;;;;4234066;28;20047;-83
2023/03/07 07:37:14;;;;;;;3.15;0.82;;;2.60;99.90;;;;;;4216400;28;20411;-83
2023/03/07 07:39:16;;;;;;;5.97;0.60;;;4.20;99.90;;;;;;4251629;27;20131;-83
2023/03/07 07:41:18;;;;;;;3.75;0.77;;;3.70;99.90;;;;;;4233405;28;20059;-83
2023/03/07 07:43:18;;;;;;;2.33;0.60;;;3.80;99.90;;;;;;4232293;28;20058;-83
2023/03/07 07:45:23;;;;;;;6.38;1.17;;;2.80;99.90;;;;;;4216079;28;20123;-83
2023/03/07 07:47:25;;;;;;;1.80;0.57;;;3.90;99.90;;;;;;4251735;27;20054;-83
2023/03/07 07:49:26;;;;;;;3.60;0.52;;;3.60;99.90;;;;;;4233312;28;20055;-83
2023/03/07 07:51:27;;;;;;;7.45;1.35;;;1.30;99.90;;;;;;4251506;27;20040;-83
2023/03/07 07:53:31;;;;;;;1.55;0.52;;;4.00;99.90;;;;;;4251767;27;20043;-83
2023/03/07 07:55:33;;;;;;;4.15;0.50;;;4.00;99.90;;;;;;4233007;28;20048;-83
2023/03/07 07:57:33;;;;;;;3.22;0.68;;;2.90;99.90;;;;;;4230020;28;20130;-83
2023/03/07 07:59:34;;;;;;;2.35;0.30;;;2.70;99.90;;;;;;4199506;28;20048;-83
2023/03/07 08:01:35;;;;;;;3.13;0.50;;;2.70;99.90;;;;;;4229092;28;20126;-83
2023/03/07 08:03:36;;;;;;;2.83;0.50;;;3.30;99.90;;;;;;4199399;28;20060;-83
2023/03/07 08:05:44;;;;;;;6.10;0.55;;;3.90;99.90;;;;;;4200386;28;20414;-85
2023/03/07 08:07:45;;;;;;;4.68;0.98;;;4.30;99.90;;;;;;4234298;28;20782;-82
2023/03/07 08:09:47;;;;;;;5.28;0.60;;;4.20;99.90;;;;;;4216546;28;20047;-83
2023/03/07 08:11:49;;;;;;;3.63;0.80;;;3.70;99.90;;;;;;4216125;28;20048;-83
2023/03/07 08:13:49;;;;;;;5.35;2.15;;;3.60;99.90;;;;;;4199966;28;20510;-83
2023/03/07 08:15:50;;;;;;;3.33;0.47;;;4.20;99.90;;;;;;4215838;28;20056;-87
2023/03/07 08:17:52;;;;;;;5.05;0.80;;;4.40;99.90;;;;;;4235664;28;20477;-81
2023/03/07 08:19:54;;;;;;;3.72;0.85;;;3.10;99.90;;;;;;4214974;28;20055;-81
2023/03/07 08:21:54;;;;;;;6.45;0.77;;;3.30;99.90;;;;;;4199714;28;20045;-89
2023/03/07 08:23:56;;;;;;;3.00;0.40;;;3.10;99.90;;;;;;4199461;28;20165;-82
2023/03/07 08:26:04;;;;;;;4.60;0.43;;;4.50;99.90;;;;;;4215722;28;20119;-80
2023/03/07 08:28:06;;;;;;;4.80;0.82;;;3.10;99.90;;;;;;4233888;28;20051;-81
2023/03/07 08:30:07;;;;;;;5.60;1.00;;;3.10;99.90;;;;;;4234456;28;20114;-81
2023/03/07 08:32:08;;;;;;;4.30;0.60;;;3.00;99.90;;;;;;4224453;28;20555;-80
2023/03/07 08:34:09;;;;;;;6.93;1.05;;;3.80;99.90;;;;;;4242786;27;20097;-80
2023/03/07 08:36:10;;;;;;;9.88;1.02;;;3.90;99.90;;;;;;4242202;27;20043;-80
2023/03/07 08:38:11;;;;;;;4.43;1.13;;;4.00;99.90;;;;;;4243879;27;20045;-80
2023/03/07 08:40:13;;;;;;;5.15;0.70;;;4.00;99.90;;;;;;4250409;27;20126;-80
2023/03/07 08:42:14;;;;;;;4.70;0.73;;;2.80;99.90;;;;;;4215911;28;20044;-80
2023/03/07 08:44:15;;;;;;;5.93;0.77;;;2.80;99.90;;;;;;4251300;27;20047;-80
2023/03/07 08:46:17;;;;;;;6.63;0.88;;;3.70;99.90;;;;;;4216012;28;20197;-80
2023/03/07 08:48:19;;;;;;;12.45;1.85;;;3.70;99.90;;;;;;4250722;27;20047;-80
2023/03/07 08:50:21;;;;;;;4.93;0.88;;;3.40;99.90;;;;;;4245141;27;20566;-80
2023/03/07 08:52:23;;;;;;;3.28;0.57;;;3.60;99.90;;;;;;4250539;27;20074;-80
2023/03/07 08:54:24;;;;;;;6.60;0.60;;;3.60;99.90;;;;;;4250188;27;20039;-80
2023/03/07 08:56:26;;;;;;;6.07;0.95;;;4.10;99.90;;;;;;4214435;28;20539;-80
2023/03/07 08:58:26;;;;;;;3.60;0.88;;;3.20;99.90;;;;;;4249522;27;20099;-80
2023/03/07 09:00:27;;;;;;;6.93;0.70;;;4.30;99.90;;;;;;4250028;27;20047;-80
2023/03/07 09:02:28;;;;;;;12.18;0.93;;;3.50;99.90;;;;;;4245135;27;20047;-79
2023/03/07 09:04:28;;;;;;;4.18;0.70;;;3.80;99.90;;;;;;4215466;28;20074;-79
2023/03/07 09:06:30;;;;;;;6.18;0.73;;;4.10;99.90;;;;;;4250253;27;20498;-79
2023/03/07 09:08:31;;;;;;;6.53;0.82;;;4.50;99.90;;;;;;4213710;28;20144;-79
2023/03/07 09:10:33;;;;;;;2.80;0.50;;;4.70;99.90;;;;;;4250511;27;20050;-80
2023/03/07 09:12:34;;;;;;;3.95;0.90;;;3.70;99.90;;;;;;4231533;28;20058;-80
2023/03/07 09:14:35;;;;;;;5.85;0.68;;;4.10;99.90;;;;;;4231835;28;20035;-80
2023/03/07 09:16:36;;;;;;;4.03;0.68;;;3.80;99.90;;;;;;4250273;27;20390;-80
2023/03/07 09:18:37;;;;;;;5.25;0.73;;;3.80;99.90;;;;;;4250063;27;20039;-80
2023/03/07 09:20:38;;;;;;;8.52;1.10;;;4.50;99.90;;;;;;4231615;28;20051;-80
2023/03/07 09:22:39;;;;;;;4.57;1.33;;;3.90;99.90;;;;;;4231446;28;20039;-80
2023/03/07 09:24:40;;;;;;;4.40;0.60;;;3.90;99.90;;;;;;4229970;28;20466;-80
2023/03/07 09:26:41;;;;;;;3.47;0.45;;;3.40;99.90;;;;;;4226558;28;20138;-81
2023/03/07 09:28:44;;;;;;;7.50;1.85;;;4.00;99.90;;;;;;4234933;27;20051;-80
2023/03/07 09:30:45;;;;;;;2.10;0.85;;;3.50;99.90;;;;;;4218601;28;20043;-80
2023/03/07 09:32:45;;;;;;;8.13;1.10;;;4.20;99.90;;;;;;4230826;28;20050;-80
2023/03/07 09:34:46;;;;;;;4.10;1.05;;;4.00;99.90;;;;;;4230280;28;20050;-80
2023/03/07 09:36:50;;;;;;;7.18;0.82;;;3.70;99.90;;;;;;4230503;28;20119;-81
2023/03/07 09:38:51;;;;;;;5.07;0.52;;;4.10;99.90;;;;;;4230669;28;20414;-80
2023/03/07 09:40:53;;;;;;;7.80;0.60;;;4.40;99.90;;;;;;4213900;28;20048;-81
2023/03/07 09:43:21;;;;;;;8.00;0.60;;;3.90;99.90;;;;;;4249096;27;20474;-80
2023/03/07 09:46:21;;;;;;;3.63;0.70;;;3.40;99.90;;;;;;4248931;27;20039;-81
2023/03/07 09:48:44;;;;;;;6.60;0.93;;;3.40;99.90;;;;;;4180148;28;20041;-81
2023/03/07 09:51:10;;;;;;;5.35;0.77;;;3.40;99.90;;;;;;4180849;28;20048;-81
2023/03/07 09:53:23;;;;;;;4.28;0.82;;;3.40;99.90;;;;;;4186109;28;20062;-81
2023/03/07 09:55:25;;;;;;;8.95;1.05;;;4.40;99.90;;;;;;4249065;27;20050;-81
2023/03/07 09:57:30;;;;;;;4.30;0.65;;;3.90;99.90;;;;;;4231330;28;20048;-81
2023/03/07 09:59:50;;;;;;;5.40;1.02;;;3.70;99.90;;;;;;4222019;28;20190;-81
2023/03/07 10:02:15;;;;;;;6.82;1.02;;;3.50;99.90;;;;;;4216532;28;20048;-81
2023/03/07 10:04:26;;;;;;;1.63;0.60;;;3.60;99.90;;;;;;4231138;28;20126;-81
2023/03/07 10:06:51;;;;;;;2.85;0.55;;;3.90;99.90;;;;;;4231249;28;20101;-81
2023/03/07 10:08:56;;;;;;;2.83;0.75;;;4.10;99.90;;;;;;4214193;28;20130;-80
2023/03/07 10:11:15;;;;;;;3.60;0.82;;;4.50;99.90;;;;;;4214126;28;20051;-81
2023/03/07 10:13:50;;;;;;;2.60;0.45;;;4.50;99.90;;;;;;4230436;28;20054;-81
2023/03/07 10:15:56;;;;;;;5.07;0.75;;;5.40;99.90;;;;;;4248642;27;20047;-81
2023/03/07 10:18:34;;;;;;;4.80;0.68;;;4.90;99.90;;;;;;4229376;28;20101;-80
2023/03/07 10:20:55;;;;;;;3.90;1.08;;;5.10;99.90;;;;;;4238877;27;20042;-81
2023/03/07 10:23:04;;;;;;;9.48;1.77;;;6.10;99.90;;;;;;4246609;27;20039;-80
2023/03/07 10:25:25;;;;;;;4.55;0.95;;;5.10;99.90;;;;;;4240642;27;20476;-80
2023/03/07 10:27:29;;;;;;;6.25;1.25;;;5.20;99.90;;;;;;4234047;28;20456;-80
2023/03/07 10:29:35;;;;;;;9.18;0.93;;;5.10;99.90;;;;;;4247599;27;20043;-80
2023/03/07 10:31:40;;;;;;;12.63;0.73;;;5.20;99.90;;;;;;4248133;27;20051;-80
2023/03/07 10:33:46;;;;;;;5.00;0.50;;;6.00;99.90;;;;;;4229509;28;20047;-80
2023/03/07 10:36:27;;;;;;;5.63;1.45;;;6.10;99.90;;;;;;4229269;28;20100;-80
2023/03/07 10:38:41;;;;;;;8.25;0.82;;;5.20;99.90;;;;;;4215481;28;20126;-80
2023/03/07 10:40:48;;;;;;;4.40;1.15;;;5.60;99.90;;;;;;4247480;28;20054;-81
2023/03/07 10:42:49;;;;;;;2.95;1.00;;;5.30;99.90;;;;;;4247735;28;20043;-81
2023/03/07 10:44:50;;;;;;;5.85;1.00;;;5.40;99.90;;;;;;4247744;28;20047;-80
2023/03/07 10:46:56;;;;;;;7.57;1.00;;;5.60;99.90;;;;;;4237064;28;20051;-80
2023/03/07 10:48:56;;;;;;;4.05;0.70;;;6.20;99.90;;;;;;4245990;28;20209;-81
2023/03/07 10:51:26;;;;;;;5.13;1.10;;;6.20;99.90;;;;;;4229427;28;20048;-81
2023/03/07 10:53:31;;;;;;;3.42;0.60;;;6.60;99.90;;;;;;4246839;28;20050;-81